createdAt,value
2023-09-04T00:02:10.940Z,9.10
2023-09-04T00:04:38.057Z,7.40
2023-09-04T00:07:05.183Z,6.88
2023-09-04T00:09:32.177Z,6.68
2023-09-04T00:11:59.134Z,6.97
2023-09-04T00:14:26.239Z,6.20
2023-09-04T00:16:53.086Z,8.85
2023-09-04T00:19:19.990Z,8.18
2023-09-04T00:21:46.914Z,7.15
2023-09-04T00:24:13.690Z,6.63
2023-09-04T00:26:40.774Z,6.33
2023-09-04T00:29:07.943Z,8.50
2023-09-04T00:31:34.823Z,8.05
2023-09-04T00:34:01.700Z,7.53
2023-09-04T00:36:28.581Z,8.57
2023-09-04T00:38:55.435Z,6.50
2023-09-04T00:41:22.820Z,6.32
2023-09-04T00:43:49.828Z,6.20
2023-09-04T00:46:16.869Z,7.30
2023-09-04T00:48:44.533Z,6.57
2023-09-04T00:51:11.771Z,6.43
2023-09-04T00:53:40.130Z,6.65
2023-09-04T00:56:08.418Z,10.35
2023-09-04T00:58:35.913Z,9.82
2023-09-04T01:01:03.766Z,7.60
2023-09-04T01:03:32.050Z,9.60
2023-09-04T01:06:00.814Z,7.47
2023-09-04T01:08:27.821Z,6.18
2023-09-04T01:11:13.750Z,7.40
2023-09-04T01:13:55.511Z,6.55
2023-09-04T01:16:23.145Z,6.13
2023-09-04T01:18:51.909Z,6.80
2023-09-04T01:21:18.924Z,6.68
2023-09-04T01:23:45.837Z,6.57
2023-09-04T01:26:47.707Z,6.70
2023-09-04T01:30:08.470Z,8.73
2023-09-04T01:32:42.550Z,7.47
2023-09-04T01:35:12.394Z,9.05
2023-09-04T01:37:40.473Z,7.50
2023-09-04T01:40:08.715Z,8.93
2023-09-04T01:42:37.904Z,9.00
2023-09-04T01:45:05.124Z,8.10
2023-09-04T01:47:32.149Z,7.88
2023-09-04T01:49:58.922Z,7.30
2023-09-04T01:52:25.788Z,7.18
2023-09-04T01:54:52.634Z,8.37
2023-09-04T01:57:19.512Z,7.20
2023-09-04T01:59:46.307Z,8.43
2023-09-04T02:02:13.102Z,8.57
2023-09-04T02:04:40.545Z,7.05
2023-09-04T02:07:08.164Z,7.03
2023-09-04T02:09:35.326Z,9.18
2023-09-04T02:12:02.133Z,7.75
2023-09-04T02:14:29.278Z,8.63
2023-09-04T02:16:56.199Z,7.35
2023-09-04T02:19:23.221Z,9.43
2023-09-04T02:21:50.046Z,8.15
2023-09-04T02:24:16.836Z,7.70
2023-09-04T02:26:43.724Z,9.52
2023-09-04T02:29:10.540Z,8.18
2023-09-04T02:31:37.370Z,8.00
2023-09-04T02:34:04.272Z,9.65
2023-09-04T02:36:31.953Z,8.70
2023-09-04T02:38:58.823Z,9.65
2023-09-04T02:41:25.658Z,8.88
2023-09-04T02:43:52.543Z,7.53
2023-09-04T02:46:19.331Z,7.25
2023-09-04T02:48:46.727Z,9.85
2023-09-04T02:51:13.560Z,9.00
2023-09-04T02:53:40.347Z,11.68
2023-09-04T02:56:07.367Z,11.57
2023-09-04T02:58:34.248Z,8.95
2023-09-04T03:01:01.030Z,9.35
2023-09-04T03:03:27.993Z,10.65
2023-09-04T03:05:54.930Z,12.38
2023-09-04T03:08:22.515Z,10.00
2023-09-04T03:10:50.285Z,10.93
2023-09-04T03:13:17.776Z,9.68
2023-09-04T03:15:44.758Z,8.75
2023-09-04T03:18:12.048Z,8.07
2023-09-04T03:20:39.453Z,10.80
2023-09-04T03:23:06.310Z,9.63
2023-09-04T03:25:33.694Z,8.85
2023-09-04T03:28:00.641Z,9.75
2023-09-04T03:30:27.638Z,10.98
2023-09-04T03:32:55.038Z,10.70
2023-09-04T03:35:21.943Z,9.95
2023-09-04T03:37:49.878Z,9.73
2023-09-04T03:40:24.364Z,9.25
2023-09-04T03:42:52.654Z,14.00
2023-09-04T03:45:20.339Z,9.13
2023-09-04T03:47:48.358Z,9.32
2023-09-04T03:50:15.526Z,10.80
2023-09-04T03:52:44.314Z,11.35
2023-09-04T03:55:12.193Z,10.50
2023-09-04T03:57:40.346Z,9.60
2023-09-04T04:00:18.176Z,9.77
2023-09-04T04:02:49.115Z,8.48
2023-09-04T04:05:17.345Z,9.30
2023-09-04T04:07:45.329Z,10.68
2023-09-04T04:10:12.406Z,8.77
2023-09-04T04:12:39.568Z,14.18
2023-09-04T04:15:07.716Z,9.40
2023-09-04T04:17:35.603Z,10.00
2023-09-04T04:20:08.027Z,10.82
2023-09-04T04:22:35.006Z,10.67
2023-09-04T04:25:01.865Z,9.73
2023-09-04T04:27:28.762Z,11.23
2023-09-04T04:29:56.677Z,13.27
2023-09-04T04:32:26.613Z,10.10
2023-09-04T04:34:53.462Z,11.27
2023-09-04T04:37:21.201Z,11.38
2023-09-04T04:39:48.456Z,13.90
2023-09-04T04:42:15.340Z,12.35
2023-09-04T04:44:42.532Z,10.63
2023-09-04T04:47:09.378Z,11.97
2023-09-04T04:49:36.786Z,12.88
2023-09-04T04:52:03.840Z,11.57
2023-09-04T04:54:30.684Z,12.90
2023-09-04T04:56:57.486Z,10.82
2023-09-04T04:59:24.477Z,11.20
2023-09-04T05:01:51.237Z,10.50
2023-09-04T05:04:18.227Z,11.15
2023-09-04T05:06:47.299Z,12.70
2023-09-04T05:09:14.662Z,15.88
2023-09-04T05:11:41.611Z,11.83
2023-09-04T05:14:08.813Z,13.70
2023-09-04T05:16:35.699Z,14.98
2023-09-04T05:19:02.548Z,12.27
2023-09-04T05:21:29.846Z,10.68
2023-09-04T05:23:58.742Z,14.20
2023-09-04T05:26:26.057Z,14.60
2023-09-04T05:28:52.836Z,13.18
2023-09-04T05:31:19.975Z,12.30
2023-09-04T05:33:47.138Z,14.57
2023-09-04T05:36:13.982Z,12.00
2023-09-04T05:38:41.131Z,12.13
2023-09-04T05:41:08.043Z,14.10
2023-09-04T05:43:34.917Z,12.45
2023-09-04T05:46:01.775Z,12.80
2023-09-04T05:48:29.912Z,16.83
2023-09-04T05:50:56.736Z,18.17
2023-09-04T05:53:25.335Z,12.05
2023-09-04T05:56:12.700Z,14.35
2023-09-04T05:58:50.056Z,12.60
2023-09-04T06:01:18.214Z,13.20
2023-09-04T06:03:46.581Z,12.38
2023-09-04T06:06:14.190Z,12.57
2023-09-04T06:08:41.010Z,11.48
2023-09-04T06:11:08.146Z,13.40
2023-09-04T06:13:35.012Z,13.90
2023-09-04T06:16:02.793Z,12.25
2023-09-04T06:18:30.832Z,14.88
2023-09-04T06:20:58.396Z,11.88
2023-09-04T06:23:25.998Z,15.88
2023-09-04T06:25:52.987Z,14.70
2023-09-04T06:28:19.821Z,13.75
2023-09-04T06:30:46.842Z,13.88
2023-09-04T06:33:13.955Z,13.40
2023-09-04T06:35:40.683Z,14.70
2023-09-04T06:38:08.220Z,14.83
2023-09-04T06:40:35.048Z,17.15
2023-09-04T06:43:01.907Z,15.60
2023-09-04T06:45:28.827Z,15.35
2023-09-04T06:47:55.745Z,12.98
2023-09-04T06:50:22.618Z,17.47
2023-09-04T06:52:49.523Z,16.75
2023-09-04T06:55:16.985Z,15.05
2023-09-04T06:57:43.966Z,16.40
2023-09-04T07:00:12.233Z,15.10
2023-09-04T07:02:39.411Z,13.13
2023-09-04T07:05:08.777Z,15.63
2023-09-04T07:07:36.658Z,14.50
2023-09-04T07:10:07.358Z,15.88
2023-09-04T07:12:36.769Z,16.52
2023-09-04T07:15:04.457Z,16.13
2023-09-04T07:17:31.458Z,15.88
2023-09-04T07:19:58.488Z,13.85
2023-09-04T07:22:28.366Z,14.80
2023-09-04T07:24:55.233Z,15.05
2023-09-04T07:27:22.152Z,14.73
2023-09-04T07:29:48.926Z,14.68
2023-09-04T07:32:15.799Z,14.10
2023-09-04T07:34:42.617Z,14.70
2023-09-04T07:37:09.481Z,15.18
2023-09-04T07:39:37.256Z,13.27
2023-09-04T07:42:04.636Z,14.48
2023-09-04T07:44:32.854Z,12.40
2023-09-04T07:46:59.793Z,14.05
2023-09-04T07:49:26.609Z,13.05
2023-09-04T07:51:54.611Z,13.43
2023-09-04T07:54:22.595Z,12.32
2023-09-04T07:56:49.505Z,10.82
2023-09-04T07:59:16.385Z,12.82
2023-09-04T08:01:43.242Z,10.90
2023-09-04T08:04:10.267Z,10.13
2023-09-04T08:06:37.301Z,10.88
2023-09-04T08:09:04.307Z,11.73
2023-09-04T08:11:31.460Z,9.60
2023-09-04T08:13:58.562Z,11.43
2023-09-04T08:16:25.697Z,10.17
2023-09-04T08:18:52.553Z,10.10
2023-09-04T08:21:19.691Z,10.32
2023-09-04T08:23:46.618Z,9.50
2023-09-04T08:26:16.793Z,9.73
2023-09-04T08:28:44.122Z,9.73
2023-09-04T08:31:11.754Z,9.35
2023-09-04T08:33:38.601Z,9.43
2023-09-04T08:36:05.540Z,9.80
2023-09-04T08:38:32.576Z,8.45
2023-09-04T08:41:04.358Z,10.43
2023-09-04T08:43:32.684Z,7.80
2023-09-04T08:46:07.112Z,9.43
2023-09-04T08:48:40.796Z,12.60
2023-09-04T08:51:08.559Z,9.30
2023-09-04T08:53:37.038Z,10.23
2023-09-04T08:56:05.475Z,7.55
2023-09-04T08:58:32.361Z,9.13
2023-09-04T09:00:59.701Z,8.57
2023-09-04T09:03:27.322Z,8.23
2023-09-04T09:05:57.430Z,8.33
2023-09-04T09:08:25.481Z,8.75
2023-09-04T09:10:53.260Z,7.55
2023-09-04T09:13:20.816Z,8.07
2023-09-04T09:15:48.111Z,7.45
2023-09-04T09:18:35.799Z,13.20
2023-09-04T09:21:02.657Z,7.10
2023-09-04T09:23:31.207Z,7.00
2023-09-04T09:25:58.020Z,7.25
2023-09-04T09:28:25.129Z,10.00
2023-09-04T09:30:52.226Z,8.27
2023-09-04T09:33:22.310Z,8.98
2023-09-04T09:35:49.208Z,7.30
2023-09-04T09:38:16.059Z,6.32
2023-09-04T09:40:45.512Z,7.03
2023-09-04T09:43:12.486Z,7.17
2023-09-04T09:45:39.469Z,7.45
2023-09-04T09:48:07.719Z,6.47
2023-09-04T09:50:38.575Z,6.70
2023-09-04T09:53:06.107Z,9.57
2023-09-04T09:55:35.006Z,7.03
2023-09-04T09:58:02.797Z,8.60
2023-09-04T10:00:30.336Z,8.13
2023-09-04T10:02:58.637Z,6.03
2023-09-04T10:05:27.094Z,6.90
2023-09-04T10:08:01.861Z,7.37
2023-09-04T10:10:33.017Z,6.68
2023-09-04T10:13:16.436Z,6.10
2023-09-04T10:15:48.395Z,8.77
2023-09-04T10:18:29.476Z,6.60
2023-09-04T10:20:58.632Z,6.43
2023-09-04T10:23:32.624Z,7.95
2023-09-04T10:26:25.398Z,8.15
2023-09-04T10:29:06.185Z,6.38
2023-09-04T10:31:36.571Z,6.93
2023-09-04T10:34:04.259Z,6.37
2023-09-04T10:36:32.216Z,5.90
2023-09-04T10:39:00.718Z,6.97
2023-09-04T10:41:29.465Z,7.22
2023-09-04T10:43:56.366Z,5.45
2023-09-04T10:46:24.516Z,6.07
2023-09-04T10:48:52.826Z,5.85
2023-09-04T10:51:33.974Z,6.15
2023-09-04T10:54:15.865Z,6.07
2023-09-04T10:57:01.977Z,4.50
2023-09-04T10:59:29.372Z,5.10
2023-09-04T11:01:56.800Z,7.32
2023-09-04T11:04:35.917Z,6.93
2023-09-04T11:07:26.542Z,5.07
2023-09-04T11:09:54.971Z,5.78
2023-09-04T11:12:25.539Z,9.20
2023-09-04T11:14:56.524Z,5.75
2023-09-04T11:17:27.923Z,6.65
2023-09-04T11:19:54.910Z,4.70
2023-09-04T11:22:23.260Z,8.70
2023-09-04T11:24:54.260Z,4.60
2023-09-04T11:27:22.282Z,4.35
2023-09-04T11:29:49.914Z,6.53
2023-09-04T11:32:18.129Z,5.45
2023-09-04T11:34:50.316Z,4.57
2023-09-04T11:37:17.519Z,4.37
2023-09-04T11:40:00.694Z,5.20
2023-09-04T11:42:32.064Z,4.80
2023-09-04T11:44:59.060Z,6.32
2023-09-04T11:47:26.318Z,5.25
2023-09-04T11:49:53.142Z,5.07
2023-09-04T11:52:25.008Z,4.60
2023-09-04T11:54:53.871Z,3.67
2023-09-04T11:57:21.857Z,5.65
2023-09-04T11:59:48.855Z,4.75
2023-09-04T12:02:16.017Z,5.13
2023-09-04T12:04:44.312Z,4.15
2023-09-04T12:07:13.500Z,4.65
2023-09-04T12:09:41.929Z,4.88
2023-09-04T12:12:09.335Z,8.30
2023-09-04T12:14:43.101Z,4.97
2023-09-04T12:17:11.874Z,5.93
2023-09-04T12:19:39.121Z,5.25
2023-09-04T12:22:13.881Z,4.38
2023-09-04T12:24:41.088Z,4.30
2023-09-04T12:27:10.078Z,5.17
2023-09-04T12:29:37.001Z,6.32
2023-09-04T12:32:04.867Z,5.30
2023-09-04T12:34:32.497Z,4.28
2023-09-04T12:36:59.597Z,4.05
2023-09-04T12:39:26.582Z,4.53
2023-09-04T12:41:56.541Z,3.60
2023-09-04T12:44:23.563Z,5.80
2023-09-04T12:46:50.515Z,4.40
2023-09-04T12:49:18.129Z,4.18
2023-09-04T12:51:44.948Z,4.23
2023-09-04T12:54:11.727Z,5.95
2023-09-04T12:56:39.379Z,3.95
2023-09-04T12:59:06.198Z,5.00
2023-09-04T13:01:33.273Z,4.57
2023-09-04T13:04:00.292Z,3.00
2023-09-04T13:06:31.544Z,3.80
2023-09-04T13:08:59.204Z,4.82
2023-09-04T13:11:26.342Z,6.07
2023-09-04T13:13:53.224Z,4.00
2023-09-04T13:16:22.805Z,3.77
2023-09-04T13:18:49.771Z,2.95
2023-09-04T13:21:16.681Z,5.22
2023-09-04T13:23:43.476Z,3.72
2023-09-04T13:26:10.305Z,3.72
2023-09-04T13:28:37.239Z,3.57
2023-09-04T13:31:04.135Z,4.65
2023-09-04T13:33:31.064Z,4.72
2023-09-04T13:35:58.067Z,4.43
2023-09-04T13:38:25.110Z,4.80
2023-09-04T13:40:52.011Z,7.23
2023-09-04T13:43:18.801Z,4.15
2023-09-04T13:45:45.667Z,5.25
2023-09-04T13:48:13.086Z,6.38
2023-09-04T13:50:40.403Z,4.65
2023-09-04T13:53:07.935Z,6.47
2023-09-04T13:55:35.463Z,5.57
2023-09-04T13:58:02.370Z,5.13
2023-09-04T14:00:29.263Z,4.93
2023-09-04T14:02:56.289Z,3.90
2023-09-04T14:05:23.626Z,5.00
2023-09-04T14:07:50.578Z,4.28
2023-09-04T14:10:17.500Z,3.97
2023-09-04T14:12:44.389Z,4.82
2023-09-04T14:15:12.208Z,4.95
2023-09-04T14:17:39.374Z,4.50
2023-09-04T14:20:06.862Z,7.28
2023-09-04T14:22:33.763Z,3.53
2023-09-04T14:25:00.553Z,4.13
2023-09-04T14:27:27.467Z,5.95
2023-09-04T14:29:54.337Z,4.50
2023-09-04T14:32:21.390Z,4.53
2023-09-04T14:34:48.228Z,6.95
2023-09-04T14:37:18.333Z,4.20
2023-09-04T14:39:45.655Z,4.35
2023-09-04T14:42:12.602Z,7.00
2023-09-04T14:44:39.475Z,5.05
2023-09-04T14:47:06.432Z,6.63
2023-09-04T14:49:33.393Z,5.43
2023-09-04T14:52:00.231Z,4.50
2023-09-04T14:54:27.601Z,6.20
2023-09-04T14:56:54.436Z,4.57
2023-09-04T14:59:21.283Z,5.47
2023-09-04T15:01:48.233Z,5.10
2023-09-04T15:04:15.090Z,5.15
2023-09-04T15:06:43.342Z,6.40
2023-09-04T15:09:10.223Z,7.70
2023-09-04T15:11:37.201Z,5.53
2023-09-04T15:14:04.222Z,6.18
2023-09-04T15:16:31.060Z,6.38
2023-09-04T15:18:57.820Z,6.43
2023-09-04T15:21:24.594Z,6.05
2023-09-04T15:23:51.468Z,5.93
2023-09-04T15:26:18.376Z,5.93
2023-09-04T15:28:45.191Z,4.93
2023-09-04T15:31:12.084Z,7.23
2023-09-04T15:33:39.218Z,5.75
2023-09-04T15:36:06.419Z,5.47
2023-09-04T15:38:36.489Z,5.93
2023-09-04T15:41:04.163Z,5.88
2023-09-04T15:43:31.070Z,5.43
2023-09-04T15:45:59.371Z,7.07
2023-09-04T15:48:27.015Z,6.78
2023-09-04T15:50:54.315Z,6.07
2023-09-04T15:53:24.074Z,5.00
2023-09-04T15:55:56.042Z,5.37
2023-09-04T15:58:23.913Z,5.88
2023-09-04T16:00:51.162Z,4.95
2023-09-04T16:03:20.509Z,5.45
2023-09-04T16:05:49.193Z,5.65
2023-09-04T16:08:16.248Z,5.37
2023-09-04T16:10:43.177Z,4.93
2023-09-04T16:13:24.490Z,5.38
2023-09-04T16:15:53.564Z,8.82
2023-09-04T16:18:20.502Z,5.32
2023-09-04T16:20:47.563Z,4.60
2023-09-04T16:23:17.738Z,6.57
2023-09-04T16:25:45.111Z,6.15
2023-09-04T16:28:12.545Z,6.15
2023-09-04T16:30:40.520Z,6.05
2023-09-04T16:33:12.463Z,8.30
2023-09-04T16:35:39.611Z,5.10
2023-09-04T16:38:06.404Z,7.15
2023-09-04T16:40:33.352Z,4.60
2023-09-04T16:43:02.030Z,5.93
2023-09-04T16:45:28.901Z,5.53
2023-09-04T16:47:55.842Z,6.35
2023-09-04T16:50:22.794Z,5.18
2023-09-04T16:52:49.635Z,5.15
2023-09-04T16:55:16.581Z,7.32
2023-09-04T16:57:43.401Z,8.23
2023-09-04T17:00:11.614Z,8.38
2023-09-04T17:02:38.537Z,5.75
2023-09-04T17:05:07.172Z,5.60
2023-09-04T17:07:34.774Z,5.57
2023-09-04T17:10:01.677Z,13.40
2023-09-04T17:12:30.018Z,5.28
2023-09-04T17:14:56.878Z,8.35
2023-09-04T17:17:23.726Z,7.25
2023-09-04T17:19:50.618Z,6.13
2023-09-04T17:22:17.830Z,6.77
2023-09-04T17:24:44.658Z,6.00
2023-09-04T17:27:11.504Z,7.78
2023-09-04T17:29:38.308Z,9.52
2023-09-04T17:32:05.681Z,6.15
2023-09-04T17:34:32.566Z,5.60
2023-09-04T17:36:59.339Z,7.57
2023-09-04T17:39:27.358Z,6.18
2023-09-04T17:41:54.495Z,6.47
2023-09-04T17:44:21.439Z,8.07
2023-09-04T17:46:48.318Z,5.70
2023-09-04T17:49:15.229Z,8.20
2023-09-04T17:51:42.180Z,7.57
2023-09-04T17:54:09.100Z,7.38
2023-09-04T17:56:36.037Z,7.93
2023-09-04T17:59:02.954Z,7.20
2023-09-04T18:01:30.674Z,7.60
2023-09-04T18:03:57.659Z,6.25
2023-09-04T18:06:24.704Z,6.85
2023-09-04T18:08:51.559Z,8.52
2023-09-04T18:11:20.296Z,6.13
2023-09-04T18:13:47.296Z,5.93
2023-09-04T18:16:14.195Z,6.28
2023-09-04T18:18:41.161Z,5.50
2023-09-04T18:21:08.822Z,6.55
2023-09-04T18:23:36.731Z,6.37
2023-09-04T18:26:03.572Z,6.60
2023-09-04T18:28:30.356Z,6.97
2023-09-04T18:30:57.319Z,5.65
2023-09-04T18:33:24.163Z,7.60
2023-09-04T18:35:51.137Z,6.73
2023-09-04T18:38:17.951Z,6.28
2023-09-04T18:40:45.730Z,7.28
2023-09-04T18:43:12.689Z,7.32
2023-09-04T18:45:43.881Z,6.30
2023-09-04T18:48:11.148Z,7.17
2023-09-04T18:50:38.077Z,7.68
2023-09-04T18:53:05.758Z,7.13
2023-09-04T18:55:32.781Z,7.00
2023-09-04T18:57:59.646Z,8.70
2023-09-04T19:00:26.539Z,7.37
2023-09-04T19:02:53.471Z,9.80
2023-09-04T19:05:20.292Z,7.95
2023-09-04T19:07:47.284Z,6.68
2023-09-04T19:10:14.096Z,6.75
2023-09-04T19:12:41.422Z,8.50
2023-09-04T19:15:08.580Z,6.43
2023-09-04T19:17:35.411Z,6.55
2023-09-04T19:20:02.228Z,6.93
2023-09-04T19:22:29.132Z,6.45
2023-09-04T19:24:56.074Z,6.33
2023-09-04T19:27:24.450Z,6.85
2023-09-04T19:29:51.369Z,6.60
2023-09-04T19:32:18.354Z,6.28
2023-09-04T19:34:45.158Z,6.43
2023-09-04T19:37:11.969Z,7.50
2023-09-04T19:39:44.283Z,7.00
2023-09-04T19:42:13.453Z,7.97
2023-09-04T19:44:40.229Z,8.40
2023-09-04T19:47:06.994Z,8.93
2023-09-04T19:49:33.874Z,6.57
2023-09-04T19:52:00.621Z,8.98
2023-09-04T19:54:27.435Z,8.77
2023-09-04T19:56:54.317Z,6.90
2023-09-04T19:59:21.148Z,6.97
2023-09-04T20:01:48.097Z,6.90
2023-09-04T20:04:14.970Z,8.15
2023-09-04T20:06:41.762Z,7.22
2023-09-04T20:09:10.640Z,10.30
2023-09-04T20:11:38.296Z,7.00
2023-09-04T20:14:06.095Z,10.77
2023-09-04T20:16:33.375Z,7.93
2023-09-04T20:19:00.999Z,6.97
2023-09-04T20:21:27.875Z,6.88
2023-09-04T20:23:56.641Z,8.60
2023-09-04T20:26:29.005Z,6.87
2023-09-04T20:29:02.359Z,7.85
2023-09-04T20:31:29.259Z,9.50
2023-09-04T20:33:56.189Z,7.55
2023-09-04T20:36:23.051Z,8.65
2023-09-04T20:38:50.143Z,11.20
2023-09-04T20:41:19.719Z,9.05
2023-09-04T20:43:46.541Z,8.25
2023-09-04T20:46:16.239Z,7.90
2023-09-04T20:48:43.422Z,7.20
2023-09-04T20:51:10.278Z,7.63
2023-09-04T20:53:37.089Z,7.80
2023-09-04T20:56:04.374Z,8.70
2023-09-04T20:58:31.350Z,11.38
2023-09-04T21:00:58.221Z,7.53
2023-09-04T21:03:25.353Z,9.10
2023-09-04T21:06:02.614Z,10.35
2023-09-04T21:08:29.910Z,9.23
2023-09-04T21:10:56.770Z,7.55
2023-09-04T21:13:42.955Z,7.88
2023-09-04T21:16:28.643Z,8.03
2023-09-04T21:19:13.820Z,7.20
2023-09-04T21:21:59.438Z,6.88
2023-09-04T21:24:45.121Z,8.50
2023-09-04T21:27:30.435Z,8.32
2023-09-04T21:30:16.013Z,8.23
2023-09-04T21:33:04.273Z,7.13
2023-09-04T21:35:50.553Z,9.95
2023-09-04T21:38:36.236Z,7.72
2023-09-04T21:41:21.891Z,7.10
2023-09-04T21:44:07.428Z,8.77
2023-09-04T21:46:52.921Z,8.00
2023-09-04T21:49:38.520Z,7.88
2023-09-04T21:52:24.515Z,8.32
2023-09-04T21:55:10.208Z,8.18
2023-09-04T21:57:55.752Z,9.80
2023-09-04T22:00:41.316Z,9.23
2023-09-04T22:03:27.509Z,8.55
2023-09-04T22:06:20.087Z,7.85
2023-09-04T22:09:05.799Z,7.60
2023-09-04T22:11:51.282Z,8.30
2023-09-04T22:14:36.896Z,9.80
2023-09-04T22:17:22.366Z,8.63
2023-09-04T22:20:08.103Z,7.43
2023-09-04T22:22:53.831Z,7.70
2023-09-04T22:25:39.348Z,8.13
2023-09-04T22:28:24.814Z,7.80
2023-09-04T22:31:10.420Z,9.48
2023-09-04T22:33:55.807Z,7.55
2023-09-04T22:36:41.357Z,8.18
2023-09-04T22:39:27.042Z,6.20
2023-09-04T22:42:12.665Z,7.55
2023-09-04T22:44:58.169Z,7.97
2023-09-04T22:47:43.846Z,9.48
2023-09-04T22:50:29.348Z,8.70
2023-09-04T22:53:14.916Z,7.10
2023-09-04T22:56:00.539Z,7.50
2023-09-04T22:58:46.101Z,7.60
2023-09-04T23:01:31.845Z,8.45
2023-09-04T23:04:17.405Z,7.90
2023-09-04T23:07:02.961Z,8.23
2023-09-04T23:09:48.500Z,7.75
2023-09-04T23:12:34.150Z,10.07
2023-09-04T23:15:19.824Z,7.68
2023-09-04T23:18:05.511Z,8.55
2023-09-04T23:20:50.982Z,9.87
2023-09-04T23:23:19.112Z,8.02
2023-09-04T23:25:49.254Z,9.07
2023-09-04T23:28:19.199Z,7.30
2023-09-04T23:30:53.657Z,9.65
2023-09-04T23:33:36.774Z,8.80
2023-09-04T23:36:16.591Z,7.95
2023-09-04T23:39:02.937Z,7.63
2023-09-04T23:41:48.471Z,7.15
2023-09-04T23:44:34.020Z,7.90
2023-09-04T23:47:01.644Z,9.33
2023-09-04T23:49:31.129Z,8.07
2023-09-04T23:51:58.916Z,7.25
2023-09-04T23:54:30.006Z,10.38
2023-09-04T23:56:57.509Z,6.93
2023-09-04T23:59:26.380Z,8.63
